sensor_id;sensor_type;location;lat;lon;timestamp;pressure;altitude;pressure_sealevel;temperature;humidity
58295;BME280;45705;55.592;37.460;2023-07-13T00:00:38;98218.03;;;12.12;100.00
58295;BME280;45705;55.592;37.460;2023-07-13T00:03:04;98219.25;;;11.90;100.00
58295;BME280;45705;55.592;37.460;2023-07-13T00:05:30;98217.00;;;11.92;100.00
58295;BME280;45705;55.592;37.460;2023-07-13T00:07:57;98220.53;;;11.93;100.00
58295;BME280;45705;55.592;37.460;2023-07-13T00:10:23;98218.47;;;11.90;100.00
58295;BME280;45705;55.592;37.460;2023-07-13T00:12:49;98221.41;;;11.85;100.00
58295;BME280;45705;55.592;37.460;2023-07-13T00:15:21;98223.75;;;11.86;100.00
58295;BME280;45705;55.592;37.460;2023-07-13T00:17:53;98229.16;;;11.95;100.00
58295;BME280;45705;55.592;37.460;2023-07-13T00:20:20;98230.72;;;11.96;100.00
58295;BME280;45705;55.592;37.460;2023-07-13T00:22:54;98231.75;;;12.04;100.00
58295;BME280;45705;55.592;37.460;2023-07-13T00:25:20;98231.41;;;11.93;100.00
58295;BME280;45705;55.592;37.460;2023-07-13T00:27:47;98221.63;;;11.79;100.00
58295;BME280;45705;55.592;37.460;2023-07-13T00:30:17;98208.00;;;11.67;100.00
58295;BME280;45705;55.592;37.460;2023-07-13T00:32:44;98219.78;;;11.83;100.00
58295;BME280;45705;55.592;37.460;2023-07-13T00:35:10;98208.69;;;11.89;100.00
58295;BME280;45705;55.592;37.460;2023-07-13T00:37:36;98225.72;;;11.98;100.00
58295;BME280;45705;55.592;37.460;2023-07-13T00:40:04;98220.97;;;11.95;100.00
58295;BME280;45705;55.592;37.460;2023-07-13T00:42:31;98216.28;;;11.83;100.00
58295;BME280;45705;55.592;37.460;2023-07-13T00:47:39;98221.44;;;11.97;100.00
58295;BME280;45705;55.592;37.460;2023-07-13T00:50:08;98218.75;;;11.88;100.00
58295;BME280;45705;55.592;37.460;2023-07-13T00:52:36;98222.28;;;11.76;100.00
58295;BME280;45705;55.592;37.460;2023-07-13T00:55:04;98221.44;;;11.97;100.00
58295;BME280;45705;55.592;37.460;2023-07-13T00:57:30;98222.78;;;11.91;100.00
58295;BME280;45705;55.592;37.460;2023-07-13T00:59:59;98218.91;;;11.92;100.00
58295;BME280;45705;55.592;37.460;2023-07-13T01:02:33;98223.44;;;11.88;100.00
58295;BME280;45705;55.592;37.460;2023-07-13T01:05:00;98224.91;;;11.85;100.00
58295;BME280;45705;55.592;37.460;2023-07-13T01:07:30;98224.34;;;11.79;100.00
58295;BME280;45705;55.592;37.460;2023-07-13T01:09:57;98233.22;;;12.01;100.00
58295;BME280;45705;55.592;37.460;2023-07-13T01:12:23;98219.94;;;11.99;100.00
58295;BME280;45705;55.592;37.460;2023-07-13T01:14:57;98226.88;;;11.97;100.00
58295;BME280;45705;55.592;37.460;2023-07-13T01:17:23;98218.25;;;12.07;100.00
58295;BME280;45705;55.592;37.460;2023-07-13T01:19:49;98222.44;;;12.05;100.00
58295;BME280;45705;55.592;37.460;2023-07-13T01:22:17;98224.38;;;12.16;100.00
58295;BME280;45705;55.592;37.460;2023-07-13T01:24:46;98219.25;;;11.90;100.00
58295;BME280;45705;55.592;37.460;2023-07-13T01:27:16;98218.69;;;12.09;100.00
58295;BME280;45705;55.592;37.460;2023-07-13T01:29:44;98215.75;;;12.14;100.00
58295;BME280;45705;55.592;37.460;2023-07-13T01:32:14;98217.34;;;12.03;100.00
58295;BME280;45705;55.592;37.460;2023-07-13T01:34:40;98216.31;;;12.08;100.00
58295;BME280;45705;55.592;37.460;2023-07-13T01:37:09;98219.16;;;11.99;100.00
58295;BME280;45705;55.592;37.460;2023-07-13T01:39:35;98210.28;;;11.90;100.00
58295;BME280;45705;55.592;37.460;2023-07-13T01:42:02;98209.38;;;11.98;100.00
58295;BME280;45705;55.592;37.460;2023-07-13T01:44:28;98205.75;;;11.94;100.00
58295;BME280;45705;55.592;37.460;2023-07-13T01:46:53;98202.34;;;12.09;100.00
58295;BME280;45705;55.592;37.460;2023-07-13T01:49:19;98198.25;;;12.03;100.00
58295;BME280;45705;55.592;37.460;2023-07-13T01:51:45;98199.88;;;12.04;100.00
58295;BME280;45705;55.592;37.460;2023-07-13T01:54:11;98189.88;;;12.08;100.00
58295;BME280;45705;55.592;37.460;2023-07-13T01:56:37;98185.22;;;12.09;100.00
58295;BME280;45705;55.592;37.460;2023-07-13T01:59:02;98193.50;;;12.12;100.00
58295;BME280;45705;55.592;37.460;2023-07-13T02:01:28;98192.47;;;12.17;100.00
58295;BME280;45705;55.592;37.460;2023-07-13T02:03:54;98188.16;;;12.16;100.00
58295;BME280;45705;55.592;37.460;2023-07-13T02:06:20;98184.16;;;12.13;100.00
58295;BME280;45705;55.592;37.460;2023-07-13T02:08:47;98175.75;;;12.31;100.00
58295;BME280;45705;55.592;37.460;2023-07-13T02:11:13;98186.31;;;12.32;100.00
58295;BME280;45705;55.592;37.460;2023-07-13T02:13:39;98179.41;;;12.23;100.00
58295;BME280;45705;55.592;37.460;2023-07-13T02:16:05;98186.66;;;12.31;100.00
58295;BME280;45705;55.592;37.460;2023-07-13T02:18:32;98189.16;;;12.36;100.00
58295;BME280;45705;55.592;37.460;2023-07-13T02:20:57;98186.91;;;12.26;100.00
58295;BME280;45705;55.592;37.460;2023-07-13T02:23:23;98186.66;;;12.31;100.00
58295;BME280;45705;55.592;37.460;2023-07-13T02:25:54;98187.34;;;12.28;100.00
58295;BME280;45705;55.592;37.460;2023-07-13T02:28:20;98195.06;;;12.26;100.00
58295;BME280;45705;55.592;37.460;2023-07-13T02:30:46;98190.03;;;12.40;100.00
58295;BME280;45705;55.592;37.460;2023-07-13T02:33:11;98186.34;;;12.20;100.00
58295;BME280;45705;55.592;37.460;2023-07-13T02:35:37;98194.81;;;12.43;100.00
58295;BME280;45705;55.592;37.460;2023-07-13T02:38:03;98193.22;;;12.42;100.00
58295;BME280;45705;55.592;37.460;2023-07-13T02:40:30;98182.75;;;12.44;100.00
58295;BME280;45705;55.592;37.460;2023-07-13T02:42:59;98176.97;;;12.46;100.00
58295;BME280;45705;55.592;37.460;2023-07-13T02:45:25;98184.81;;;12.47;100.00
58295;BME280;45705;55.592;37.460;2023-07-13T02:47:51;98177.13;;;12.37;100.00
58295;BME280;45705;55.592;37.460;2023-07-13T02:50:17;98174.59;;;12.44;100.00
58295;BME280;45705;55.592;37.460;2023-07-13T02:52:43;98178.09;;;12.57;100.00
58295;BME280;45705;55.592;37.460;2023-07-13T02:55:09;98176.91;;;12.70;100.00
58295;BME280;45705;55.592;37.460;2023-07-13T02:57:34;98173.19;;;12.63;100.00
58295;BME280;45705;55.592;37.460;2023-07-13T03:00:02;98181.84;;;12.52;100.00
58295;BME280;45705;55.592;37.460;2023-07-13T03:02:32;98175.41;;;12.73;100.00
58295;BME280;45705;55.592;37.460;2023-07-13T03:04:58;98171.84;;;12.56;100.00
58295;BME280;45705;55.592;37.460;2023-07-13T03:07:24;98173.75;;;12.68;100.00
58295;BME280;45705;55.592;37.460;2023-07-13T03:09:57;98178.38;;;12.68;100.00
58295;BME280;45705;55.592;37.460;2023-07-13T03:12:25;98166.78;;;12.71;100.00
58295;BME280;45705;55.592;37.460;2023-07-13T03:14:52;98166.56;;;12.76;100.00
58295;BME280;45705;55.592;37.460;2023-07-13T03:17:18;98172.56;;;12.82;100.00
58295;BME280;45705;55.592;37.460;2023-07-13T03:19:43;98164.63;;;13.05;100.00
58295;BME280;45705;55.592;37.460;2023-07-13T03:22:11;98159.31;;;12.96;100.00
58295;BME280;45705;55.592;37.460;2023-07-13T03:24:38;98154.19;;;12.94;100.00
58295;BME280;45705;55.592;37.460;2023-07-13T03:27:06;98172.16;;;12.95;100.00
58295;BME280;45705;55.592;37.460;2023-07-13T03:29:34;98176.97;;;12.86;100.00
58295;BME280;45705;55.592;37.460;2023-07-13T03:32:00;98176.72;;;12.91;100.00
58295;BME280;45705;55.592;37.460;2023-07-13T03:34:25;98174.81;;;13.08;100.00
58295;BME280;45705;55.592;37.460;2023-07-13T03:36:54;98178.41;;;12.96;100.00
58295;BME280;45705;55.592;37.460;2023-07-13T03:39:20;98179.22;;;13.12;100.00
58295;BME280;45705;55.592;37.460;2023-07-13T03:41:49;98177.19;;;13.09;100.00
58295;BME280;45705;55.592;37.460;2023-07-13T03:44:16;98180.75;;;13.26;100.00
58295;BME280;45705;55.592;37.460;2023-07-13T03:46:43;98164.78;;;13.12;100.00
58295;BME280;45705;55.592;37.460;2023-07-13T03:49:10;98167.06;;;13.10;100.00
58295;BME280;45705;55.592;37.460;2023-07-13T03:51:36;98169.13;;;13.29;100.00
58295;BME280;45705;55.592;37.460;2023-07-13T03:54:02;98175.69;;;13.12;100.00
58295;BME280;45705;55.592;37.460;2023-07-13T03:56:29;98163.38;;;13.18;100.00
58295;BME280;45705;55.592;37.460;2023-07-13T03:58:59;98167.66;;;13.31;100.00
58295;BME280;45705;55.592;37.460;2023-07-13T04:01:26;98165.75;;;13.48;100.00
58295;BME280;45705;55.592;37.460;2023-07-13T04:03:52;98170.69;;;13.58;100.00
58295;BME280;45705;55.592;37.460;2023-07-13T04:06:26;98175.28;;;13.54;100.00
58295;BME280;45705;55.592;37.460;2023-07-13T04:09:02;98176.50;;;13.72;100.00
58295;BME280;45705;55.592;37.460;2023-07-13T04:11:32;98180.91;;;13.61;100.00
58295;BME280;45705;55.592;37.460;2023-07-13T04:13:59;98180.53;;;13.47;100.00
58295;BME280;45705;55.592;37.460;2023-07-13T04:16:25;98182.63;;;13.37;100.00
58295;BME280;45705;55.592;37.460;2023-07-13T04:18:51;98184.03;;;13.31;100.00
58295;BME280;45705;55.592;37.460;2023-07-13T04:21:21;98168.03;;;13.46;100.00
58295;BME280;45705;55.592;37.460;2023-07-13T04:23:47;98172.78;;;13.49;100.00
58295;BME280;45705;55.592;37.460;2023-07-13T04:26:13;98172.72;;;13.61;100.00
58295;BME280;45705;55.592;37.460;2023-07-13T04:28:39;98174.38;;;13.66;100.00
58295;BME280;45705;55.592;37.460;2023-07-13T04:31:04;98173.25;;;13.83;100.00
58295;BME280;45705;55.592;37.460;2023-07-13T04:33:30;98178.78;;;14.02;100.00
58295;BME280;45705;55.592;37.460;2023-07-13T04:35:56;98170.16;;;13.84;100.00
58295;BME280;45705;55.592;37.460;2023-07-13T04:38:25;98189.00;;;13.73;100.00
58295;BME280;45705;55.592;37.460;2023-07-13T04:40:57;98177.47;;;13.96;100.00
58295;BME280;45705;55.592;37.460;2023-07-13T04:43:24;98186.19;;;13.86;100.00
58295;BME280;45705;55.592;37.460;2023-07-13T04:45:53;98182.41;;;13.74;100.00
58295;BME280;45705;55.592;37.460;2023-07-13T04:48:19;98183.75;;;13.81;100.00
58295;BME280;45705;55.592;37.460;2023-07-13T04:50:46;98179.66;;;13.74;100.00
58295;BME280;45705;55.592;37.460;2023-07-13T04:53:12;98184.47;;;14.13;100.00
58295;BME280;45705;55.592;37.460;2023-07-13T04:55:38;98194.78;;;14.20;100.00
58295;BME280;45705;55.592;37.460;2023-07-13T04:58:04;98182.31;;;14.38;100.00
58295;BME280;45705;55.592;37.460;2023-07-13T05:00:31;98183.16;;;14.42;100.00
58295;BME280;45705;55.592;37.460;2023-07-13T05:02:58;98179.53;;;14.54;100.00
58295;BME280;45705;55.592;37.460;2023-07-13T05:05:25;98178.28;;;14.51;100.00
58295;BME280;45705;55.592;37.460;2023-07-13T05:07:52;98176.78;;;14.18;100.00
58295;BME280;45705;55.592;37.460;2023-07-13T05:10:18;98188.06;;;14.33;100.00
58295;BME280;45705;55.592;37.460;2023-07-13T05:12:45;98183.88;;;14.20;100.00
58295;BME280;45705;55.592;37.460;2023-07-13T05:15:11;98185.78;;;14.35;100.00
58295;BME280;45705;55.592;37.460;2023-07-13T05:17:37;98180.88;;;14.44;100.00
58295;BME280;45705;55.592;37.460;2023-07-13T05:20:06;98180.94;;;14.64;100.00
58295;BME280;45705;55.592;37.460;2023-07-13T05:22:32;98171.66;;;14.88;100.00
58295;BME280;45705;55.592;37.460;2023-07-13T05:25:04;98164.81;;;14.78;100.00
58295;BME280;45705;55.592;37.460;2023-07-13T05:27:31;98167.22;;;15.22;100.00
58295;BME280;45705;55.592;37.460;2023-07-13T05:29:56;98165.16;;;15.39;100.00
58295;BME280;45705;55.592;37.460;2023-07-13T05:32:22;98170.78;;;15.46;100.00
58295;BME280;45705;55.592;37.460;2023-07-13T05:34:48;98170.03;;;15.49;100.00
58295;BME280;45705;55.592;37.460;2023-07-13T05:37:14;98162.75;;;15.80;100.00
58295;BME280;45705;55.592;37.460;2023-07-13T05:39:40;98158.72;;;15.73;100.00
58295;BME280;45705;55.592;37.460;2023-07-13T05:42:06;98169.19;;;15.91;100.00
58295;BME280;45705;55.592;37.460;2023-07-13T05:44:32;98169.25;;;16.51;97.86
58295;BME280;45705;55.592;37.460;2023-07-13T05:46:57;98174.72;;;16.78;92.79
58295;BME280;45705;55.592;37.460;2023-07-13T05:49:23;98186.91;;;16.24;96.60
58295;BME280;45705;55.592;37.460;2023-07-13T05:51:49;98171.22;;;16.81;93.26
58295;BME280;45705;55.592;37.460;2023-07-13T05:54:15;98172.63;;;17.36;89.71
58295;BME280;45705;55.592;37.460;2023-07-13T05:56:41;98165.25;;;17.84;83.81
58295;BME280;45705;55.592;37.460;2023-07-13T05:59:06;98171.19;;;17.49;85.15
58295;BME280;45705;55.592;37.460;2023-07-13T06:01:32;98165.38;;;18.02;81.61
58295;BME280;45705;55.592;37.460;2023-07-13T06:03:58;98155.31;;;18.32;80.24
58295;BME280;45705;55.592;37.460;2023-07-13T06:06:24;98162.66;;;18.79;76.83
58295;BME280;45705;55.592;37.460;2023-07-13T06:08:50;98153.06;;;18.44;75.58
58295;BME280;45705;55.592;37.460;2023-07-13T06:11:19;98153.09;;;18.59;74.59
58295;BME280;45705;55.592;37.460;2023-07-13T06:13:46;98154.13;;;19.10;68.01
58295;BME280;45705;55.592;37.460;2023-07-13T06:16:13;98148.69;;;19.49;67.29
58295;BME280;45705;55.592;37.460;2023-07-13T06:18:40;98152.53;;;19.08;67.88
58295;BME280;45705;55.592;37.460;2023-07-13T06:21:11;98152.53;;;19.05;67.13
58295;BME280;45705;55.592;37.460;2023-07-13T06:23:37;98138.44;;;19.46;63.78
58295;BME280;45705;55.592;37.460;2023-07-13T06:26:04;98149.44;;;19.24;64.40
58295;BME280;45705;55.592;37.460;2023-07-13T06:28:30;98147.88;;;19.38;63.25
58295;BME280;45705;55.592;37.460;2023-07-13T06:30:59;98150.16;;;19.00;65.01
58295;BME280;45705;55.592;37.460;2023-07-13T06:33:25;98141.59;;;19.55;63.35
58295;BME280;45705;55.592;37.460;2023-07-13T06:35:51;98143.94;;;19.50;63.58
58295;BME280;45705;55.592;37.460;2023-07-13T06:38:17;98144.78;;;19.93;63.39
58295;BME280;45705;55.592;37.460;2023-07-13T06:40:43;98139.09;;;20.69;59.86
58295;BME280;45705;55.592;37.460;2023-07-13T06:43:09;98130.34;;;20.84;58.21
58295;BME280;45705;55.592;37.460;2023-07-13T06:45:40;98132.81;;;20.46;58.47
58295;BME280;45705;55.592;37.460;2023-07-13T06:48:06;98130.56;;;19.66;62.36
58295;BME280;45705;55.592;37.460;2023-07-13T06:50:33;98134.34;;;20.58;59.65
58295;BME280;45705;55.592;37.460;2023-07-13T06:53:00;98137.63;;;20.21;60.15
58295;BME280;45705;55.592;37.460;2023-07-13T06:55:26;98138.41;;;19.32;63.12
58295;BME280;45705;55.592;37.460;2023-07-13T06:57:51;98153.22;;;18.80;65.32
58295;BME280;45705;55.592;37.460;2023-07-13T07:00:17;98139.19;;;19.25;63.90
58295;BME280;45705;55.592;37.460;2023-07-13T07:02:44;98142.34;;;19.23;63.90
58295;BME280;45705;55.592;37.460;2023-07-13T07:05:10;98136.84;;;19.31;64.23
58295;BME280;45705;55.592;37.460;2023-07-13T07:07:36;98138.81;;;19.52;63.94
58295;BME280;45705;55.592;37.460;2023-07-13T07:10:02;98139.97;;;19.22;64.90
58295;BME280;45705;55.592;37.460;2023-07-13T07:12:29;98143.94;;;19.35;65.50
58295;BME280;45705;55.592;37.460;2023-07-13T07:14:55;98140.78;;;19.33;66.32
58295;BME280;45705;55.592;37.460;2023-07-13T07:17:21;98138.75;;;19.08;67.22
58295;BME280;45705;55.592;37.460;2023-07-13T07:19:47;98139.94;;;19.07;68.67
58295;BME280;45705;55.592;37.460;2023-07-13T07:22:13;98141.50;;;19.05;67.62
58295;BME280;45705;55.592;37.460;2023-07-13T07:24:39;98137.59;;;19.20;67.14
58295;BME280;45705;55.592;37.460;2023-07-13T07:27:05;98143.09;;;19.17;67.34
58295;BME280;45705;55.592;37.460;2023-07-13T07:29:31;98148.13;;;18.82;69.08
58295;BME280;45705;55.592;37.460;2023-07-13T07:31:58;98155.44;;;18.49;71.00
58295;BME280;45705;55.592;37.460;2023-07-13T07:34:24;98149.94;;;18.57;71.06
58295;BME280;45705;55.592;37.460;2023-07-13T07:36:50;98160.94;;;18.49;70.69
58295;BME280;45705;55.592;37.460;2023-07-13T07:39:16;98156.44;;;18.93;67.87
58295;BME280;45705;55.592;37.460;2023-07-13T07:41:42;98161.78;;;18.57;69.28
58295;BME280;45705;55.592;37.460;2023-07-13T07:44:08;98169.38;;;18.16;71.70
58295;BME280;45705;55.592;37.460;2023-07-13T07:46:35;98171.69;;;18.06;72.40
58295;BME280;45705;55.592;37.460;2023-07-13T07:49:01;98166.25;;;18.17;70.78
58295;BME280;45705;55.592;37.460;2023-07-13T07:51:27;98166.16;;;18.06;70.00
58295;BME280;45705;55.592;37.460;2023-07-13T07:53:53;98170.91;;;17.61;71.93
58295;BME280;45705;55.592;37.460;2023-07-13T07:56:19;98182.94;;;17.87;71.84
58295;BME280;45705;55.592;37.460;2023-07-13T07:58:45;98172.66;;;18.39;71.17
58295;BME280;45705;55.592;37.460;2023-07-13T08:01:13;98184.09;;;18.41;71.17
58295;BME280;45705;55.592;37.460;2023-07-13T08:03:39;98184.09;;;17.86;70.33
58295;BME280;45705;55.592;37.460;2023-07-13T08:06:05;98170.53;;;18.11;67.92
58295;BME280;45705;55.592;37.460;2023-07-13T08:08:31;98181.59;;;17.74;64.42
58295;BME280;45705;55.592;37.460;2023-07-13T08:10:56;98180.81;;;17.73;66.90
58295;BME280;45705;55.592;37.460;2023-07-13T08:13:22;98177.09;;;17.92;69.43
58295;BME280;45705;55.592;37.460;2023-07-13T08:15:48;98188.38;;;17.42;73.50
58295;BME280;45705;55.592;37.460;2023-07-13T08:18:15;98188.81;;;17.07;77.38
58295;BME280;45705;55.592;37.460;2023-07-13T08:20:41;98185.72;;;17.12;78.98
58295;BME280;45705;55.592;37.460;2023-07-13T08:23:09;98174.03;;;17.19;80.52
58295;BME280;45705;55.592;37.460;2023-07-13T08:25:35;98188.28;;;17.31;79.09
58295;BME280;45705;55.592;37.460;2023-07-13T08:28:02;98188.13;;;17.58;78.99
58295;BME280;45705;55.592;37.460;2023-07-13T08:30:28;98190.69;;;17.37;81.41
58295;BME280;45705;55.592;37.460;2023-07-13T08:32:54;98178.81;;;17.25;82.38
58295;BME280;45705;55.592;37.460;2023-07-13T08:35:20;98177.03;;;17.06;82.37
58295;BME280;45705;55.592;37.460;2023-07-13T08:37:46;98189.53;;;17.04;83.87
58295;BME280;45705;55.592;37.460;2023-07-13T08:40:13;98189.22;;;17.09;85.56
58295;BME280;45705;55.592;37.460;2023-07-13T08:42:44;98183.31;;;16.77;90.16
58295;BME280;45705;55.592;37.460;2023-07-13T08:45:20;98171.78;;;16.64;93.37
58295;BME280;45705;55.592;37.460;2023-07-13T08:48:05;98172.63;;;16.68;94.35
58295;BME280;45705;55.592;37.460;2023-07-13T08:50:58;98177.44;;;17.08;92.50
58295;BME280;45705;55.592;37.460;2023-07-13T08:53:34;98176.84;;;16.92;93.56
58295;BME280;45705;55.592;37.460;2023-07-13T08:56:02;98180.53;;;17.03;91.96
58295;BME280;45705;55.592;37.460;2023-07-13T08:58:30;98174.50;;;16.90;93.20
58295;BME280;45705;55.592;37.460;2023-07-13T09:01:10;98180.94;;;17.05;92.80
58295;BME280;45705;55.592;37.460;2023-07-13T09:04:07;98177.28;;;16.64;93.19
58295;BME280;45705;55.592;37.460;2023-07-13T09:12:16;98184.94;;;16.81;92.29
58295;BME280;45705;55.592;37.460;2023-07-13T09:14:47;98185.31;;;16.80;93.36
58295;BME280;45705;55.592;37.460;2023-07-13T09:17:18;98182.31;;;16.88;92.48
58295;BME280;45705;55.592;37.460;2023-07-13T09:19:48;98190.91;;;17.21;89.80
58295;BME280;45705;55.592;37.460;2023-07-13T09:22:18;98194.25;;;17.03;91.90
58295;BME280;45705;55.592;37.460;2023-07-13T09:25:05;98189.22;;;16.79;98.75
58295;BME280;45705;55.592;37.460;2023-07-13T09:27:36;98188.47;;;17.12;94.43
58295;BME280;45705;55.592;37.460;2023-07-13T09:30:23;98195.91;;;17.11;96.90
58295;BME280;45705;55.592;37.460;2023-07-13T09:32:52;98199.28;;;17.31;95.60
58295;BME280;45705;55.592;37.460;2023-07-13T09:35:26;98210.22;;;17.28;96.00
58295;BME280;45705;55.592;37.460;2023-07-13T09:37:57;98210.19;;;16.90;100.00
58295;BME280;45705;55.592;37.460;2023-07-13T09:40:56;98205.66;;;17.05;98.92
58295;BME280;45705;55.592;37.460;2023-07-13T09:43:25;98208.16;;;16.84;95.52
58295;BME280;45705;55.592;37.460;2023-07-13T09:45:51;98203.44;;;16.84;96.77
58295;BME280;45705;55.592;37.460;2023-07-13T09:48:17;98211.50;;;17.04;97.17
58295;BME280;45705;55.592;37.460;2023-07-13T09:50:44;98209.44;;;17.27;97.21
58295;BME280;45705;55.592;37.460;2023-07-13T09:53:14;98200.53;;;17.04;97.16
58295;BME280;45705;55.592;37.460;2023-07-13T09:55:42;98205.66;;;16.75;100.00
58295;BME280;45705;55.592;37.460;2023-07-13T10:00:35;98215.38;;;16.69;100.00
58295;BME280;45705;55.592;37.460;2023-07-13T10:03:21;98211.59;;;16.50;99.42
58295;BME280;45705;55.592;37.460;2023-07-13T10:05:50;98214.66;;;16.45;100.00
58295;BME280;45705;55.592;37.460;2023-07-13T10:08:23;98210.13;;;16.57;100.00
58295;BME280;45705;55.592;37.460;2023-07-13T10:10:57;98216.59;;;16.71;100.00
58295;BME280;45705;55.592;37.460;2023-07-13T10:13:33;98214.56;;;16.38;100.00
58295;BME280;45705;55.592;37.460;2023-07-13T10:16:02;98214.41;;;16.54;100.00
58295;BME280;45705;55.592;37.460;2023-07-13T10:18:42;98202.28;;;16.59;100.00
58295;BME280;45705;55.592;37.460;2023-07-13T10:21:12;98218.03;;;16.62;100.00
58295;BME280;45705;55.592;37.460;2023-07-13T10:23:39;98217.94;;;16.54;100.00
58295;BME280;45705;55.592;37.460;2023-07-13T10:26:12;98215.28;;;16.62;100.00
58295;BME280;45705;55.592;37.460;2023-07-13T10:28:40;98211.78;;;16.65;100.00
58295;BME280;45705;55.592;37.460;2023-07-13T10:31:12;98215.25;;;16.58;100.00
58295;BME280;45705;55.592;37.460;2023-07-13T10:33:38;98215.50;;;16.49;100.00
58295;BME280;45705;55.592;37.460;2023-07-13T10:36:51;98211.59;;;16.50;100.00
58295;BME280;45705;55.592;37.460;2023-07-13T10:39:13;98218.44;;;16.64;100.00
58295;BME280;45705;55.592;37.460;2023-07-13T10:41:42;98225.31;;;16.50;100.00
58295;BME280;45705;55.592;37.460;2023-07-13T10:44:16;98221.75;;;16.46;100.00
58295;BME280;45705;55.592;37.460;2023-07-13T10:46:43;98222.47;;;16.43;100.00
58295;BME280;45705;55.592;37.460;2023-07-13T10:49:11;98227.22;;;16.46;100.00
58295;BME280;45705;55.592;37.460;2023-07-13T10:51:38;98229.22;;;16.23;100.00
58295;BME280;45705;55.592;37.460;2023-07-13T10:54:32;98233.19;;;16.52;100.00
58295;BME280;45705;55.592;37.460;2023-07-13T10:57:20;98231.97;;;16.49;100.00
58295;BME280;45705;55.592;37.460;2023-07-13T11:02:36;98239.44;;;16.26;100.00
58295;BME280;45705;55.592;37.460;2023-07-13T11:05:25;98239.78;;;16.21;100.00
58295;BME280;45705;55.592;37.460;2023-07-13T11:07:55;98233.50;;;15.97;100.00
58295;BME280;45705;55.592;37.460;2023-07-13T11:10:48;98236.38;;;16.04;100.00
58295;BME280;45705;55.592;37.460;2023-07-13T11:16:12;98242.16;;;15.99;100.00
58295;BME280;45705;55.592;37.460;2023-07-13T11:18:38;98225.47;;;15.85;100.00
58295;BME280;45705;55.592;37.460;2023-07-13T11:21:19;98229.38;;;15.84;100.00
58295;BME280;45705;55.592;37.460;2023-07-13T11:23:52;98221.03;;;15.77;100.00
58295;BME280;45705;55.592;37.460;2023-07-13T11:29:53;98218.56;;;15.71;100.00
58295;BME280;45705;55.592;37.460;2023-07-13T11:31:56;98227.06;;;15.86;100.00
58295;BME280;45705;55.592;37.460;2023-07-13T11:36:56;98214.31;;;15.97;100.00
58295;BME280;45705;55.592;37.460;2023-07-13T11:39:24;98215.63;;;16.03;100.00
58295;BME280;45705;55.592;37.460;2023-07-13T11:41:56;98212.97;;;16.10;100.00
58295;BME280;45705;55.592;37.460;2023-07-13T11:44:25;98219.69;;;16.13;100.00
58295;BME280;45705;55.592;37.460;2023-07-13T11:46:54;98207.81;;;16.05;100.00
58295;BME280;45705;55.592;37.460;2023-07-13T11:49:24;98211.28;;;16.29;100.00
58295;BME280;45705;55.592;37.460;2023-07-13T11:51:51;98211.13;;;16.18;100.00
58295;BME280;45705;55.592;37.460;2023-07-13T11:54:31;98221.94;;;16.34;100.00
58295;BME280;45705;55.592;37.460;2023-07-13T11:57:34;98219.72;;;16.17;100.00
58295;BME280;45705;55.592;37.460;2023-07-13T12:00:04;98225.88;;;16.10;100.00
58295;BME280;45705;55.592;37.460;2023-07-13T12:02:34;98218.88;;;16.12;100.00
58295;BME280;45705;55.592;37.460;2023-07-13T12:05:03;98225.28;;;15.74;100.00
58295;BME280;45705;55.592;37.460;2023-07-13T12:07:32;98224.69;;;15.84;100.00
58295;BME280;45705;55.592;37.460;2023-07-13T12:10:25;98221.47;;;15.79;100.00
58295;BME280;45705;55.592;37.460;2023-07-13T12:12:57;98214.09;;;15.83;100.00
58295;BME280;45705;55.592;37.460;2023-07-13T12:15:28;98215.03;;;15.71;100.00
58295;BME280;45705;55.592;37.460;2023-07-13T12:17:56;98212.66;;;15.69;100.00
58295;BME280;45705;55.592;37.460;2023-07-13T12:20:26;98218.00;;;15.62;100.00
58295;BME280;45705;55.592;37.460;2023-07-13T12:22:52;98213.28;;;15.59;100.00
58295;BME280;45705;55.592;37.460;2023-07-13T12:25:19;98215.75;;;15.68;100.00
58295;BME280;45705;55.592;37.460;2023-07-13T12:27:48;98221.41;;;15.75;100.00
58295;BME280;45705;55.592;37.460;2023-07-13T12:30:21;98217.47;;;15.53;100.00
58295;BME280;45705;55.592;37.460;2023-07-13T12:33:06;98206.19;;;15.58;100.00
58295;BME280;45705;55.592;37.460;2023-07-13T12:35:41;98208.50;;;15.56;100.00
58295;BME280;45705;55.592;37.460;2023-07-13T12:38:11;98214.31;;;15.74;100.00
58295;BME280;45705;55.592;37.460;2023-07-13T12:40:37;98204.34;;;15.85;100.00
58295;BME280;45705;55.592;37.460;2023-07-13T12:43:03;98197.63;;;16.06;100.00
58295;BME280;45705;55.592;37.460;2023-07-13T12:45:32;98195.97;;;16.01;100.00
58295;BME280;45705;55.592;37.460;2023-07-13T12:48:04;98188.81;;;15.93;100.00
58295;BME280;45705;55.592;37.460;2023-07-13T12:50:37;98187.44;;;16.06;100.00
58295;BME280;45705;55.592;37.460;2023-07-13T12:53:05;98190.94;;;16.03;100.00
58295;BME280;45705;55.592;37.460;2023-07-13T12:55:43;98191.34;;;16.05;100.00
58295;BME280;45705;55.592;37.460;2023-07-13T12:58:25;98196.94;;;15.86;100.00
58295;BME280;45705;55.592;37.460;2023-07-13T13:00:54;98196.72;;;15.98;100.00
58295;BME280;45705;55.592;37.460;2023-07-13T13:03:31;98194.28;;;15.93;100.00
58295;BME280;45705;55.592;37.460;2023-07-13T13:08:33;98210.81;;;15.73;100.00
58295;BME280;45705;55.592;37.460;2023-07-13T13:11:01;98204.44;;;15.69;100.00
58295;BME280;45705;55.592;37.460;2023-07-13T13:13:26;98210.22;;;15.64;100.00
58295;BME280;45705;55.592;37.460;2023-07-13T13:15:52;98216.56;;;15.68;100.00